Главная страница
METAR-TAF:

METAR-TAF

Аэропорты :

Пальма, Испания

Пальма-де-Мальорка

широта: 39-33N, долгота: 002-44E, высота над уровнем моря: 4 м

Текущие метеонаблюдения

Эта сводка был подготовлена 15 минут назад, в 14:00 UTC
Ветер 2 Узел от юго-западный
Температура 24°C
Влажность 54%
Давление 1017 hPa
Видимость 10 км и более
Нет облачности ниже 1500 м, и нет кучево-дождевой облачности

METAR: LEPA 221400Z 23002KT CAVOK 24/14 Q1017 NOSIG

Время: 16:15 (14:15 UTC)

Прогноз

Эта сводка был подготовлена 3 часа и 15 минут назад, в 11:00 UTC
Прогноз действительный с 22-го 12 UTC до 23-го 12 UTC
Ветер 10 Узел от юго-западный
Видимость 10 км и более
небольшая облачность на высоте 2000 фута
изменения
С 22-го 13 UTC до 22-го 15 UTC
Ветер 10 Узел от юго-восточный
изменения
С 22-го 18 UTC до 22-го 20 UTC
Ветер 5 Узел от восточно-северо-восточный

TAF: LEPA 221100Z 2212/2312 22010KT 9999 FEW020 TX23/2212Z TN11/2306Z BECMG 2213/2215 14010KT BECMG 2218/2220 06005KT

Метеонаблюдения и прогнозы для более 4000 аэропортов (сводки METAR и TAF).

Имеющиеся станции представлены на карте желтыми и красными точками.

Чтобы увидеть название станции, наведите на нее мышь.

Затем щелкните, чтобы увидеть метеонаблюдения и метеопрогнозы.

Управление картой: чтобы увеличить масштаб, щелкните зеленые кнопки с черным крестиком; чтобы уменьшить масштаб, щелкните зеленую кнопку с тире; для просмотра соседних карт щелкайте зеленые стрелки.


METAR-TAF: